createdAt,value
2022-11-27T00:00:02.768Z,101580.66
2022-11-27T00:01:15.170Z,101582.34
2022-11-27T00:02:16.702Z,101581.28
2022-11-27T00:03:18.432Z,101580.22
2022-11-27T00:04:19.992Z,101575.47
2022-11-27T00:05:24.226Z,101574.63
2022-11-27T00:06:27.351Z,101569.50
2022-11-27T00:07:28.837Z,101567.78
2022-11-27T00:08:30.476Z,101557.44
2022-11-27T00:09:33.786Z,101574.16
2022-11-27T00:10:35.286Z,101564.09
2022-11-27T00:11:39.370Z,101569.31
2022-11-27T00:12:40.836Z,101569.78
2022-11-27T00:13:42.360Z,101570.63
2022-11-27T00:14:43.858Z,101560.81
2022-11-27T00:15:45.387Z,101567.22
2022-11-27T00:16:46.869Z,101560.41
2022-11-27T00:17:48.323Z,101560.63
2022-11-27T00:18:49.801Z,101553.34
2022-11-27T00:19:51.320Z,101557.22
2022-11-27T00:20:53.904Z,101549.34
2022-11-27T00:21:58.462Z,101553.69
2022-11-27T00:22:59.924Z,101547.25
2022-11-27T00:24:07.779Z,101549.41
2022-11-27T00:25:09.424Z,101546.63
2022-11-27T00:26:10.950Z,101538.25
2022-11-27T00:27:14.232Z,101541.28
2022-11-27T00:28:15.755Z,101542.38
2022-11-27T00:29:17.249Z,101541.53
2022-11-27T00:30:21.766Z,101537.28
2022-11-27T00:31:28.502Z,101538.38
2022-11-27T00:32:30.184Z,101535.19
2022-11-27T00:33:31.829Z,101532.84
2022-11-27T00:34:33.302Z,101534.91
2022-11-27T00:35:34.810Z,101530.41
2022-11-27T00:36:36.339Z,101535.13
2022-11-27T00:37:37.851Z,101527.84
2022-11-27T00:38:39.481Z,101536.91
2022-11-27T00:39:40.970Z,101526.84
2022-11-27T00:40:42.429Z,101527.91
2022-11-27T00:41:43.946Z,101524.03
2022-11-27T00:42:51.481Z,101530.94
2022-11-27T00:43:53.822Z,101527.31
2022-11-27T00:44:58.309Z,101523.28
2022-11-27T00:45:59.872Z,101524.59
2022-11-27T00:47:01.422Z,101515.84
2022-11-27T00:48:03.934Z,101521.28
2022-11-27T00:49:05.613Z,101514.44
2022-11-27T00:50:07.453Z,101520.34
2022-11-27T00:51:09.484Z,101516.72
2022-11-27T00:52:13.577Z,101526.22
2022-11-27T00:53:21.119Z,101524.75
2022-11-27T00:54:23.064Z,101519.84
2022-11-27T00:55:24.695Z,101526.50
2022-11-27T00:56:27.015Z,101525.88
2022-11-27T00:57:28.573Z,101524.56
2022-11-27T00:58:32.789Z,101522.44
2022-11-27T00:59:34.306Z,101520.50
2022-11-27T01:00:35.802Z,101512.13
2022-11-27T01:01:38.616Z,101518.56
2022-11-27T01:02:40.251Z,101516.00
2022-11-27T01:03:41.790Z,101516.84
2022-11-27T01:04:46.476Z,101514.28
2022-11-27T01:05:48.010Z,101505.28
2022-11-27T01:06:49.478Z,101512.56
2022-11-27T01:07:51.090Z,101508.94
2022-11-27T01:08:55.447Z,101508.09
2022-11-27T01:09:56.932Z,101513.03
2022-11-27T01:11:03.784Z,101510.47
2022-11-27T01:12:05.507Z,101507.59
2022-11-27T01:13:07.036Z,101513.16
2022-11-27T01:14:10.977Z,101512.69
2022-11-27T01:15:12.518Z,101514.41
2022-11-27T01:16:20.732Z,101514.63
2022-11-27T01:17:22.261Z,101509.91
2022-11-27T01:18:23.738Z,101506.06
2022-11-27T01:19:25.183Z,101516.56
2022-11-27T01:20:26.752Z,101523.84
2022-11-27T01:21:28.851Z,101514.41
2022-11-27T01:22:30.296Z,101505.19
2022-11-27T01:23:34.891Z,101509.06
2022-11-27T01:24:36.357Z,101506.28
2022-11-27T01:25:37.962Z,101507.13
2022-11-27T01:26:42.426Z,101500.72
2022-11-27T01:27:44.358Z,101506.50
2022-11-27T01:28:45.887Z,101508.22
2022-11-27T01:29:47.905Z,101506.28
2022-11-27T01:30:49.688Z,101500.72
2022-11-27T01:31:51.144Z,101513.56
2022-11-27T01:32:52.672Z,101514.41
2022-11-27T01:33:54.916Z,101510.56
2022-11-27T01:34:59.352Z,101503.06
2022-11-27T01:36:02.475Z,101501.13
2022-11-27T01:37:05.988Z,101506.69
2022-11-27T01:38:07.473Z,101511.41
2022-11-27T01:39:10.174Z,101513.97
2022-11-27T01:40:11.831Z,101513.97
2022-11-27T01:41:13.253Z,101508.41
2022-11-27T01:42:14.703Z,101508.41
2022-11-27T01:43:16.310Z,101505.00
2022-11-27T01:44:27.264Z,101501.97
2022-11-27T01:45:28.770Z,101498.53
2022-11-27T01:46:42.281Z,101510.56
2022-11-27T01:47:45.869Z,101508.84
2022-11-27T01:48:47.332Z,101503.25
2022-11-27T01:49:50.096Z,101507.13
2022-11-27T01:50:51.605Z,101510.16
2022-11-27T01:51:55.601Z,101511.00
2022-11-27T01:52:58.969Z,101513.16
2022-11-27T01:54:02.817Z,101519.81
2022-11-27T01:55:05.993Z,101517.03
2022-11-27T01:56:08.371Z,101516.19
2022-11-27T01:57:13.874Z,101514.50
2022-11-27T01:58:17.543Z,101510.00
2022-11-27T01:59:19.024Z,101515.81
2022-11-27T02:00:20.721Z,101506.84
2022-11-27T02:01:24.347Z,101525.69
2022-11-27T02:02:28.281Z,101511.13
2022-11-27T02:03:35.453Z,101511.13
2022-11-27T02:04:37.983Z,101512.22
2022-11-27T02:05:39.671Z,101512.44
2022-11-27T02:06:41.142Z,101508.81
2022-11-27T02:07:48.597Z,101503.44
2022-11-27T02:08:52.485Z,101500.91
2022-11-27T02:09:53.961Z,101500.91
2022-11-27T02:11:14.589Z,101504.75
2022-11-27T02:12:24.784Z,101505.66
2022-11-27T02:13:34.802Z,101492.44
2022-11-27T02:14:44.486Z,101513.38
2022-11-27T02:15:48.711Z,101510.00
2022-11-27T02:16:59.314Z,101504.06
2022-11-27T02:18:03.618Z,101492.09
2022-11-27T02:19:08.916Z,101495.50
2022-11-27T02:20:25.594Z,101491.25
2022-11-27T02:21:27.056Z,101496.81
2022-11-27T02:22:34.675Z,101490.63
2022-11-27T02:23:54.257Z,101499.59
2022-11-27T02:25:19.649Z,101501.53
2022-11-27T02:26:45.537Z,101502.38
2022-11-27T02:27:49.599Z,101500.22
2022-11-27T02:28:51.016Z,101498.50
2022-11-27T02:29:54.485Z,101494.63
2022-11-27T02:31:03.564Z,101492.72
2022-11-27T02:32:20.346Z,101497.41
2022-11-27T02:33:21.842Z,101490.78
2022-11-27T02:34:43.496Z,101492.47
2022-11-27T02:35:48.225Z,101489.06
2022-11-27T02:36:50.410Z,101483.50
2022-11-27T02:38:02.309Z,101482.66
2022-11-27T02:39:05.139Z,101480.09
2022-11-27T02:40:06.875Z,101473.91
2022-11-27T02:41:19.382Z,101470.28
2022-11-27T02:42:21.001Z,101468.34
2022-11-27T02:43:29.851Z,101458.31
2022-11-27T02:44:31.760Z,101461.09
2022-11-27T02:45:39.701Z,101456.59
2022-11-27T02:46:41.344Z,101455.94
2022-11-27T02:47:43.971Z,101457.03
2022-11-27T02:48:55.451Z,101451.69
2022-11-27T02:49:57.193Z,101459.66
2022-11-27T02:51:02.514Z,101453.47
2022-11-27T02:52:04.001Z,101451.16
2022-11-27T02:53:07.031Z,101452.84
2022-11-27T02:54:09.681Z,101449.44
2022-11-27T02:55:11.751Z,101452.22
2022-11-27T02:56:14.995Z,101456.06
2022-11-27T02:57:16.530Z,101455.44
2022-11-27T02:58:18.238Z,101449.03
2022-11-27T02:59:19.699Z,101455.91
2022-11-27T03:00:21.184Z,101460.84
2022-11-27T03:01:22.763Z,101463.00
2022-11-27T03:02:27.510Z,101458.53
2022-11-27T03:03:29.931Z,101462.38
2022-11-27T03:04:34.566Z,101458.94
2022-11-27T03:05:37.642Z,101454.47
2022-11-27T03:06:42.085Z,101454.47
2022-11-27T03:07:46.437Z,101447.44
2022-11-27T03:08:54.408Z,101455.16
2022-11-27T03:09:56.964Z,101455.16
2022-11-27T03:11:01.183Z,101459.25
2022-11-27T03:12:03.385Z,101454.78
2022-11-27T03:13:11.990Z,101445.81
2022-11-27T03:14:13.631Z,101449.63
2022-11-27T03:15:15.115Z,101447.69
2022-11-27T03:16:34.942Z,101442.38
2022-11-27T03:17:41.383Z,101444.53
2022-11-27T03:18:51.930Z,101441.97
2022-11-27T03:19:54.711Z,101448.84
2022-11-27T03:21:01.708Z,101442.44
2022-11-27T03:22:06.195Z,101437.94
2022-11-27T03:23:07.638Z,101441.81
2022-11-27T03:24:09.342Z,101425.34
2022-11-27T03:25:10.796Z,101423.63
2022-11-27T03:26:12.278Z,101420.22
2022-11-27T03:27:18.439Z,101424.53
2022-11-27T03:28:20.011Z,101415.56
2022-11-27T03:29:29.451Z,101423.28
2022-11-27T03:30:30.942Z,101426.06
2022-11-27T03:31:32.510Z,101419.88
2022-11-27T03:32:34.118Z,101425.44
2022-11-27T03:33:35.566Z,101421.16
2022-11-27T03:34:37.060Z,101416.75
2022-11-27T03:35:38.552Z,101419.69
2022-11-27T03:36:40.022Z,101428.50
2022-11-27T03:37:41.721Z,101429.34
2022-11-27T03:38:43.335Z,101424.00
2022-11-27T03:39:47.138Z,101427.25
2022-11-27T03:40:55.196Z,101431.06
2022-11-27T03:42:10.465Z,101433.22
2022-11-27T03:43:14.278Z,101435.38
2022-11-27T03:44:24.809Z,101427.25
2022-11-27T03:45:37.849Z,101426.88
2022-11-27T03:46:57.844Z,101422.63
2022-11-27T03:48:11.575Z,101429.44
2022-11-27T03:49:24.636Z,101426.91
2022-11-27T03:50:32.941Z,101429.91
2022-11-27T03:51:46.318Z,101434.22
2022-11-27T03:52:59.456Z,101430.34
2022-11-27T03:54:12.994Z,101427.78
2022-11-27T03:55:23.462Z,101431.66
2022-11-27T03:56:41.842Z,101430.81
2022-11-27T03:57:57.970Z,101423.53
2022-11-27T03:59:01.029Z,101432.06
2022-11-27T04:00:05.512Z,101425.66
2022-11-27T04:01:08.662Z,101429.50
2022-11-27T04:02:17.818Z,101426.75
2022-11-27T04:03:26.978Z,101435.56
2022-11-27T04:04:28.486Z,101436.84
2022-11-27T04:05:30.021Z,101432.38
2022-11-27T04:06:31.511Z,101432.13
2022-11-27T04:07:33.098Z,101433.00
2022-11-27T04:08:34.930Z,101432.38
2022-11-27T04:09:36.415Z,101431.28
2022-11-27T04:10:42.700Z,101425.72
2022-11-27T04:11:44.167Z,101424.03
2022-11-27T04:12:45.624Z,101424.66
2022-11-27T04:13:47.069Z,101421.03
2022-11-27T04:14:48.596Z,101425.31
2022-11-27T04:15:53.240Z,101431.72
2022-11-27T04:16:54.790Z,101421.47
2022-11-27T04:17:56.353Z,101430.66
2022-11-27T04:18:57.795Z,101427.00
2022-11-27T04:19:59.243Z,101431.72
2022-11-27T04:21:02.086Z,101428.72
2022-11-27T04:22:09.221Z,101426.78
2022-11-27T04:23:10.680Z,101420.38
2022-11-27T04:24:12.211Z,101413.75
2022-11-27T04:25:13.897Z,101410.53
2022-11-27T04:26:15.353Z,101400.47
2022-11-27T04:27:16.862Z,101404.09
2022-11-27T04:28:18.313Z,101406.03
2022-11-27T04:29:19.859Z,101409.66
2022-11-27T04:30:21.612Z,101407.75
2022-11-27T04:31:23.142Z,101398.09
2022-11-27T04:32:24.785Z,101392.38
2022-11-27T04:33:26.271Z,101391.75
2022-11-27T04:34:27.725Z,101385.19
2022-11-27T04:35:32.246Z,101388.88
2022-11-27T04:36:39.014Z,101393.00
2022-11-27T04:37:41.045Z,101394.91
2022-11-27T04:38:42.522Z,101390.66
2022-11-27T04:40:09.749Z,101394.06
2022-11-27T04:41:11.202Z,101400.72
2022-11-27T04:42:12.730Z,101399.25
2022-11-27T04:43:14.268Z,101399.91
2022-11-27T04:44:15.740Z,101398.41
2022-11-27T04:45:19.559Z,101396.97
2022-11-27T04:46:21.656Z,101403.34
2022-11-27T04:47:23.161Z,101403.13
2022-11-27T04:48:24.674Z,101407.63
2022-11-27T04:49:26.165Z,101403.78
2022-11-27T04:50:36.222Z,101400.59
2022-11-27T04:51:37.697Z,101396.53
2022-11-27T04:52:39.188Z,101399.53
2022-11-27T04:53:40.725Z,101403.59
2022-11-27T04:54:42.394Z,101396.97
2022-11-27T04:55:44.082Z,101399.13
2022-11-27T04:56:48.320Z,101396.97
2022-11-27T04:57:52.380Z,101403.38
2022-11-27T04:58:53.855Z,101389.94
2022-11-27T05:00:04.657Z,101397.19
2022-11-27T05:01:07.631Z,101399.75
2022-11-27T05:02:09.183Z,101390.16
2022-11-27T05:03:13.456Z,101398.06
2022-11-27T05:04:14.993Z,101399.31
2022-11-27T05:05:19.606Z,101382.25
2022-11-27T05:06:22.648Z,101399.97
2022-11-27T05:07:24.275Z,101401.25
2022-11-27T05:08:25.986Z,101399.97
2022-11-27T05:09:27.497Z,101404.44
2022-11-27T05:10:28.954Z,101402.53
2022-11-27T05:11:37.631Z,101405.50
2022-11-27T05:12:39.099Z,101417.69
2022-11-27T05:13:40.547Z,101402.31
2022-11-27T05:14:42.312Z,101409.97
2022-11-27T05:15:44.046Z,101402.50
2022-11-27T05:16:47.124Z,101396.09
2022-11-27T05:17:48.574Z,101399.94
2022-11-27T05:18:50.077Z,101399.75
2022-11-27T05:19:51.604Z,101397.84
2022-11-27T05:20:56.906Z,101396.97
2022-11-27T05:21:58.482Z,101395.91
2022-11-27T05:22:59.923Z,101392.69
2022-11-27T05:24:01.450Z,101392.25
2022-11-27T05:25:02.992Z,101399.09
2022-11-27T05:26:04.503Z,101400.19
2022-11-27T05:27:05.983Z,101396.34
2022-11-27T05:28:07.470Z,101387.56
2022-11-27T05:29:09.106Z,101395.25
2022-11-27T05:30:10.681Z,101392.50
2022-11-27T05:31:12.204Z,101396.13
2022-11-27T05:32:13.785Z,101396.31
2022-11-27T05:33:15.877Z,101397.81
2022-11-27T05:34:20.119Z,101395.25
2022-11-27T05:35:21.679Z,101388.84
2022-11-27T05:36:23.187Z,101396.09
2022-11-27T05:37:24.994Z,101389.28
2022-11-27T05:38:29.494Z,101386.09
2022-11-27T05:39:30.925Z,101378.63
2022-11-27T05:40:33.992Z,101381.81
2022-11-27T05:41:35.857Z,101378.19
2022-11-27T05:42:38.913Z,101375.00
2022-11-27T05:43:40.406Z,101369.25
2022-11-27T05:44:42.108Z,101381.41
2022-11-27T05:45:43.860Z,101380.31
2022-11-27T05:46:45.494Z,101379.03
2022-11-27T05:47:47.012Z,101389.09
2022-11-27T05:48:51.154Z,101384.16
2022-11-27T05:49:52.679Z,101384.19
2022-11-27T05:50:54.150Z,101386.72
2022-11-27T05:51:55.671Z,101397.19
2022-11-27T05:52:57.111Z,101392.91
2022-11-27T05:53:58.595Z,101385.03
2022-11-27T05:55:03.230Z,101389.72
2022-11-27T05:57:46.130Z,101389.06
2022-11-27T05:58:51.692Z,101396.09
2022-11-27T05:59:53.176Z,101368.81
2022-11-27T06:00:54.658Z,101390.78
2022-11-27T06:01:56.153Z,101387.16
2022-11-27T06:02:57.667Z,101395.25
2022-11-27T06:04:01.936Z,101392.50
2022-11-27T06:05:03.450Z,101403.78
2022-11-27T06:06:08.131Z,101394.63
2022-11-27T06:07:09.702Z,101399.09
2022-11-27T06:08:11.141Z,101394.63
2022-11-27T06:09:13.731Z,101392.28
2022-11-27T06:10:15.442Z,101400.59
2022-11-27T06:11:18.610Z,101393.56
2022-11-27T06:12:20.152Z,101391.00
2022-11-27T06:13:21.590Z,101384.16
2022-11-27T06:14:23.070Z,101377.34
2022-11-27T06:15:24.557Z,101381.63
2022-11-27T06:16:26.131Z,101378.22
2022-11-27T06:17:27.742Z,101372.44
2022-11-27T06:18:29.193Z,101366.69
2022-11-27T06:19:30.658Z,101360.28
2022-11-27T06:20:32.190Z,101373.97
2022-11-27T06:21:34.874Z,101369.66
2022-11-27T06:22:39.139Z,101368.19
2022-11-27T06:23:43.893Z,101373.50
2022-11-27T06:24:46.055Z,101363.28
2022-11-27T06:27:03.469Z,101361.13
2022-11-27T06:28:04.957Z,101348.75
2022-11-27T06:29:06.416Z,101353.91
2022-11-27T06:30:08.137Z,101358.38
2022-11-27T06:31:18.043Z,101355.16
2022-11-27T06:32:19.957Z,101357.94
2022-11-27T06:33:21.399Z,101352.19
2022-11-27T06:34:22.885Z,101356.47
2022-11-27T06:35:24.450Z,101359.44
2022-11-27T06:36:32.665Z,101355.41
2022-11-27T06:37:39.933Z,101351.75
2022-11-27T06:38:41.441Z,101363.91
2022-11-27T06:39:42.918Z,101360.28
2022-11-27T06:40:47.458Z,101356.00
2022-11-27T06:41:48.940Z,101359.19
2022-11-27T06:42:53.325Z,101353.44
2022-11-27T06:43:55.053Z,101343.63
2022-11-27T06:44:56.750Z,101350.47
2022-11-27T06:45:58.546Z,101344.47
2022-11-27T06:47:03.015Z,101334.88
2022-11-27T06:48:04.604Z,101334.66
2022-11-27T06:49:06.065Z,101345.34
2022-11-27T06:50:07.845Z,101343.63
2022-11-27T06:51:10.105Z,101342.78
2022-11-27T06:52:11.635Z,101337.25
2022-11-27T06:53:13.133Z,101339.41
2022-11-27T06:54:16.047Z,101338.53
2022-11-27T06:55:17.526Z,101337.91
2022-11-27T06:56:22.222Z,101346.44
2022-11-27T06:57:23.682Z,101342.59
2022-11-27T06:58:31.163Z,101332.59
2022-11-27T06:59:32.892Z,101338.31
2022-11-27T07:00:36.544Z,101340.66
2022-11-27T07:01:38.104Z,101327.03
2022-11-27T07:02:39.616Z,101321.06
2022-11-27T07:03:41.168Z,101324.91
2022-11-27T07:04:45.870Z,101311.91
2022-11-27T07:05:47.354Z,101313.38
2022-11-27T07:06:48.857Z,101311.66
2022-11-27T07:07:50.353Z,101301.66
2022-11-27T07:08:52.356Z,101304.19
2022-11-27T07:09:53.837Z,101310.19
2022-11-27T07:11:05.307Z,101311.03
2022-11-27T07:12:08.225Z,101312.53
2022-11-27T07:13:09.728Z,101314.03
2022-11-27T07:14:11.187Z,101324.28
2022-11-27T07:15:12.668Z,101323.19
2022-11-27T07:16:14.309Z,101333.84
2022-11-27T07:17:15.821Z,101330.84
2022-11-27T07:18:17.385Z,101323.63
2022-11-27T07:19:18.817Z,101331.06
2022-11-27T07:20:20.274Z,101336.41
2022-11-27T07:21:21.743Z,101328.72
2022-11-27T07:22:23.237Z,101331.28
2022-11-27T07:23:27.259Z,101339.41
2022-11-27T07:24:28.743Z,101330.84
2022-11-27T07:25:30.307Z,101332.78
2022-11-27T07:26:31.790Z,101334.25
2022-11-27T07:27:36.342Z,101340.66
2022-11-27T07:28:43.826Z,101345.13
2022-11-27T07:29:45.331Z,101336.81
2022-11-27T07:30:53.706Z,101341.94
2022-11-27T07:32:01.303Z,101345.38
2022-11-27T07:33:02.851Z,101322.50
2022-11-27T07:34:07.202Z,101325.28
2022-11-27T07:35:13.244Z,101314.84
2022-11-27T07:36:18.504Z,101318.25
2022-11-27T07:37:20.021Z,101318.66
2022-11-27T07:38:23.008Z,101321.22
2022-11-27T07:39:46.397Z,101311.22
2022-11-27T07:40:46.051Z,101304.59
2022-11-27T07:41:50.241Z,101295.41
2022-11-27T07:42:51.783Z,101296.25
2022-11-27T07:43:54.019Z,101303.50
2022-11-27T07:45:04.146Z,101303.50
2022-11-27T07:46:06.094Z,101300.13
2022-11-27T07:47:07.671Z,101299.03
2022-11-27T07:48:09.178Z,101288.56
2022-11-27T07:49:10.684Z,101291.16
2022-11-27T07:50:12.474Z,101292.47
2022-11-27T07:51:14.843Z,101293.94
2022-11-27T07:52:16.325Z,101289.88
2022-11-27T07:53:18.142Z,101282.41
2022-11-27T07:54:19.611Z,101274.94
2022-11-27T07:55:21.050Z,101279.22
2022-11-27T07:56:31.178Z,101274.53
2022-11-27T07:57:32.662Z,101272.41
2022-11-27T07:58:34.149Z,101259.19
2022-11-27T07:59:35.587Z,101272.81
2022-11-27T08:00:37.317Z,101276.66
2022-11-27T08:01:38.874Z,101277.53
2022-11-27T08:02:43.392Z,101286.50
2022-11-27T08:03:45.183Z,101286.09
2022-11-27T08:04:47.069Z,101281.41
2022-11-27T08:05:48.608Z,101292.91
2022-11-27T08:06:50.222Z,101294.59
2022-11-27T08:07:51.760Z,101303.53
2022-11-27T08:08:56.686Z,101306.31
2022-11-27T08:09:58.334Z,101305.25
2022-11-27T08:10:59.798Z,101299.28
2022-11-27T08:12:06.528Z,101297.16
2022-11-27T08:13:10.419Z,101283.91
2022-11-27T08:14:11.915Z,101293.94
2022-11-27T08:15:13.402Z,101293.31
2022-11-27T08:16:15.127Z,101301.00
2022-11-27T08:17:16.622Z,101295.44
2022-11-27T08:18:18.430Z,101301.63
2022-11-27T08:19:19.903Z,101295.84
2022-11-27T08:20:21.434Z,101298.63
2022-11-27T08:21:23.026Z,101290.75
2022-11-27T08:22:24.461Z,101285.63
2022-11-27T08:23:25.942Z,101279.63
2022-11-27T08:24:27.431Z,101283.03
2022-11-27T08:25:29.093Z,101276.63
2022-11-27T08:26:30.595Z,101285.84
2022-11-27T08:27:33.133Z,101283.28
2022-11-27T08:28:34.819Z,101286.69
2022-11-27T08:29:36.626Z,101281.78
2022-11-27T08:30:38.095Z,101279.63
2022-11-27T08:31:42.436Z,101277.06
2022-11-27T08:32:44.186Z,101273.63
2022-11-27T08:33:48.707Z,101276.63
2022-11-27T08:34:50.159Z,101278.97
2022-11-27T08:35:51.639Z,101281.28
2022-11-27T08:36:53.215Z,101278.97
2022-11-27T08:37:54.675Z,101281.28
2022-11-27T08:38:56.290Z,101282.78
2022-11-27T08:39:57.787Z,101276.19
2022-11-27T08:41:00.989Z,101276.59
2022-11-27T08:42:02.503Z,101284.47
2022-11-27T08:43:04.019Z,101284.88
2022-11-27T08:44:09.156Z,101288.94
2022-11-27T08:45:11.378Z,101287.00
2022-11-27T08:46:12.963Z,101280.81
2022-11-27T08:47:16.799Z,101270.81
2022-11-27T08:48:21.455Z,101273.13
2022-11-27T08:49:23.034Z,101274.44
2022-11-27T08:50:24.684Z,101274.81
2022-11-27T08:51:26.188Z,101271.44
2022-11-27T08:52:27.640Z,101266.75
2022-11-27T08:53:29.206Z,101265.25
2022-11-27T08:54:30.658Z,101262.47
2022-11-27T08:55:38.218Z,101263.50
2022-11-27T08:56:39.738Z,101263.75
2022-11-27T08:57:41.204Z,101268.44
2022-11-27T08:58:50.519Z,101261.81
2022-11-27T08:59:52.013Z,101255.00
2022-11-27T09:00:53.566Z,101253.97
2022-11-27T09:01:55.069Z,101246.75
2022-11-27T09:03:00.140Z,101244.59
2022-11-27T09:04:02.188Z,101250.13
2022-11-27T09:05:05.116Z,101256.09
2022-11-27T09:06:07.647Z,101256.31
2022-11-27T09:07:11.981Z,101253.50
2022-11-27T09:08:20.060Z,101260.94
2022-11-27T09:09:21.548Z,101253.47
2022-11-27T09:10:23.159Z,101253.88
2022-11-27T09:11:24.624Z,101255.59
2022-11-27T09:12:27.405Z,101256.94
2022-11-27T09:13:28.907Z,101262.72
2022-11-27T09:14:30.406Z,101256.09
2022-11-27T09:15:31.894Z,101258.69
2022-11-27T09:16:58.747Z,101249.25
2022-11-27T09:18:02.626Z,101241.53
2022-11-27T09:19:04.118Z,101243.69
2022-11-27T09:20:06.281Z,101242.78
2022-11-27T09:21:08.883Z,101239.56
2022-11-27T09:22:10.377Z,101242.13
2022-11-27T09:23:14.483Z,101236.75
2022-11-27T09:24:16.182Z,101246.13
2022-11-27T09:25:17.748Z,101244.84
2022-11-27T09:26:19.191Z,101246.31
2022-11-27T09:27:20.672Z,101250.34
2022-11-27T09:28:23.014Z,101257.16
2022-11-27T09:29:33.722Z,101249.91
2022-11-27T09:30:35.271Z,101254.16
2022-11-27T09:31:37.138Z,101247.75
2022-11-27T09:32:38.633Z,101250.75
2022-11-27T09:33:47.902Z,101253.69
2022-11-27T09:34:51.588Z,101251.38
2022-11-27T09:35:53.224Z,101252.00
2022-11-27T09:36:54.717Z,101253.25
2022-11-27T09:37:56.510Z,101249.84
2022-11-27T09:38:58.634Z,101241.50
2022-11-27T09:40:00.176Z,101240.84
2022-11-27T09:41:11.431Z,101239.72
2022-11-27T09:42:15.523Z,101232.66
2022-11-27T09:43:17.420Z,101222.31
2022-11-27T09:44:46.454Z,101225.28
2022-11-27T09:45:54.654Z,101224.84
2022-11-27T09:46:57.052Z,101220.50
2022-11-27T09:47:59.254Z,101226.91
2022-11-27T09:49:04.878Z,101224.53
2022-11-27T09:50:08.406Z,101220.00
2022-11-27T09:51:28.792Z,101215.94
2022-11-27T09:52:36.814Z,101212.69
2022-11-27T09:53:58.002Z,101209.66
2022-11-27T09:55:04.091Z,101205.63
2022-11-27T09:56:05.726Z,101202.84
2022-11-27T09:57:07.447Z,101200.91
2022-11-27T09:58:16.211Z,101203.91
2022-11-27T09:59:22.107Z,101205.63
2022-11-27T10:00:23.790Z,101207.94
2022-11-27T10:01:33.659Z,101201.19
2022-11-27T10:02:40.370Z,101205.66
2022-11-27T10:03:42.614Z,101209.66
2022-11-27T10:05:05.778Z,101216.09
2022-11-27T10:06:15.795Z,101202.41
2022-11-27T10:07:37.670Z,101205.44
2022-11-27T10:09:08.756Z,101212.06
2022-11-27T10:10:21.268Z,101205.44
2022-11-27T10:11:26.605Z,101200.28
2022-11-27T10:12:33.749Z,101196.19
2022-11-27T10:13:41.655Z,101187.91
2022-11-27T10:14:58.026Z,101190.28
2022-11-27T10:16:04.088Z,101183.66
2022-11-27T10:17:05.603Z,101187.53
2022-11-27T10:18:19.546Z,101188.13
2022-11-27T10:19:32.836Z,101185.59
2022-11-27T10:20:34.278Z,101185.34
2022-11-27T10:21:45.110Z,101182.97
2022-11-27T10:22:59.116Z,101176.31
2022-11-27T10:24:03.772Z,101182.81
2022-11-27T10:25:42.904Z,101183.66
2022-11-27T10:26:50.493Z,101175.72
2022-11-27T10:27:59.106Z,101171.47
2022-11-27T10:29:32.249Z,101171.66
2022-11-27T10:30:36.227Z,101171.84
2022-11-27T10:31:41.490Z,101167.00
2022-11-27T10:32:58.453Z,101166.09
2022-11-27T10:34:03.613Z,101153.09
2022-11-27T10:35:12.751Z,101150.22
2022-11-27T10:36:25.893Z,101144.25
2022-11-27T10:37:28.570Z,101137.06
2022-11-27T10:38:39.205Z,101134.44
2022-11-27T10:39:42.876Z,101122.22
2022-11-27T10:40:53.599Z,101117.50
2022-11-27T10:42:08.796Z,101127.91
2022-11-27T10:43:18.592Z,101117.56
2022-11-27T10:44:36.322Z,101113.81
2022-11-27T10:45:44.379Z,101119.56
2022-11-27T10:46:45.984Z,101119.88
2022-11-27T10:47:48.359Z,101120.34
2022-11-27T10:48:49.870Z,101104.97
2022-11-27T10:49:51.347Z,101116.47
2022-11-27T10:50:52.834Z,101101.97
2022-11-27T10:51:54.385Z,101099.47
2022-11-27T10:52:56.967Z,101098.28
2022-11-27T10:54:05.650Z,101095.97
2022-11-27T10:55:12.388Z,101094.94
2022-11-27T10:56:15.570Z,101088.25
2022-11-27T10:57:25.206Z,101093.78
2022-11-27T10:58:34.357Z,101096.13
2022-11-27T10:59:37.899Z,101088.16
2022-11-27T11:00:45.214Z,101093.00
2022-11-27T11:01:50.181Z,101087.78
2022-11-27T11:03:05.001Z,101085.63
2022-11-27T11:04:18.686Z,101088.41
2022-11-27T11:06:53.266Z,101097.66
2022-11-27T11:08:02.330Z,101089.50
2022-11-27T11:09:05.340Z,101089.00
2022-11-27T11:10:25.562Z,101091.09
2022-11-27T11:11:27.133Z,101081.44
2022-11-27T11:12:28.650Z,101074.09
2022-11-27T11:13:50.667Z,101072.63
2022-11-27T11:14:52.277Z,101081.59
2022-11-27T11:16:00.754Z,101082.06
2022-11-27T11:17:03.303Z,101078.66
2022-11-27T11:18:04.890Z,101082.06
2022-11-27T11:19:30.554Z,101071.31
2022-11-27T11:20:32.039Z,101067.56
2022-11-27T11:21:40.434Z,101070.75
2022-11-27T11:22:45.416Z,101077.63
2022-11-27T11:23:51.137Z,101073.78
2022-11-27T11:25:01.702Z,101063.63
2022-11-27T11:26:04.678Z,101064.69
2022-11-27T11:27:07.213Z,101055.28
2022-11-27T11:28:14.503Z,101055.16
2022-11-27T11:29:27.156Z,101058.66
2022-11-27T11:30:33.370Z,101048.63
2022-11-27T11:31:36.211Z,101057.13
2022-11-27T11:32:38.159Z,101049.13
2022-11-27T11:33:47.319Z,101043.69
2022-11-27T11:34:59.163Z,101038.75
2022-11-27T11:36:07.166Z,101037.44
2022-11-27T11:37:15.300Z,101040.34
2022-11-27T11:38:17.079Z,101035.13
2022-11-27T11:39:38.890Z,101041.31
2022-11-27T11:40:44.682Z,101044.09
2022-11-27T11:41:46.214Z,101037.69
2022-11-27T11:43:13.209Z,101042.31
2022-11-27T11:44:34.159Z,101039.03
2022-11-27T11:45:44.981Z,101037.22
2022-11-27T11:46:50.864Z,101038.69
2022-11-27T11:47:53.330Z,101036.25
2022-11-27T11:48:58.553Z,101030.19
2022-11-27T11:50:00.103Z,101029.75
2022-11-27T11:51:02.294Z,101027.09
2022-11-27T11:52:07.450Z,101026.63
2022-11-27T11:53:27.770Z,101027.22
2022-11-27T11:54:29.189Z,101023.59
2022-11-27T11:55:45.197Z,101014.38
2022-11-27T11:57:11.770Z,101023.97
2022-11-27T11:58:13.249Z,101021.91
2022-11-27T11:59:37.554Z,101013.31
2022-11-27T12:00:58.472Z,101009.22
2022-11-27T12:02:27.764Z,101007.63
2022-11-27T12:03:51.629Z,101005.34
2022-11-27T12:05:03.526Z,100997.59
2022-11-27T12:06:21.293Z,101002.91
2022-11-27T12:07:36.109Z,101004.34
2022-11-27T12:08:37.819Z,100998.88
2022-11-27T12:09:59.107Z,100993.69
2022-11-27T12:11:06.714Z,100994.66
2022-11-27T12:12:29.407Z,100989.44
2022-11-27T12:13:39.745Z,100994.53
2022-11-27T12:14:44.329Z,100991.50
2022-11-27T12:16:10.177Z,100997.41
2022-11-27T12:17:11.821Z,100993.78
2022-11-27T12:18:39.739Z,100995.22
2022-11-27T12:19:56.325Z,100999.47
2022-11-27T12:21:03.843Z,100993.53
2022-11-27T12:22:30.392Z,100987.63
2022-11-27T12:23:34.943Z,100985.56